Providence, Rhode Island
Traffic Map
Current Weather Conditions
Providence, Rhode Island
Clear
Clear
17°
Feels Like: 17°
Wind Chill: 17° Ceiling: Unl
Heat Index: 17° Visibility: 10mi
Dew Point: 13° Wind: 3mph
Humidity: 80% Direction: 270° (W)
Pressure: 30.09in Gusts: 0mph
Raw Report DataKPVD 280651Z AUTO 27003KT 10SM CLR 17/13 A3009 RMK AO2 SLP189 T01670133
Traffic Incident Summary
Active as of:
Severity:
Category:
InformationThere was an issue retrieving the traffic information for this location. Please try a different location or try again shortly.
Advertisements
Track Severe Weather on mobile